createdAt,value
2023-04-10T00:00:23.229Z,8.58
2023-04-10T00:01:23.218Z,8.58
2023-04-10T00:02:23.348Z,8.57
2023-04-10T00:03:22.702Z,8.56
2023-04-10T00:04:22.729Z,8.55
2023-04-10T00:05:23.185Z,8.53
2023-04-10T00:06:23.169Z,8.52
2023-04-10T00:07:23.150Z,8.50
2023-04-10T00:08:23.144Z,8.48
2023-04-10T00:09:23.128Z,8.47
2023-04-10T00:10:23.373Z,8.46
2023-04-10T00:11:23.346Z,8.43
2023-04-10T00:12:23.347Z,8.41
2023-04-10T00:13:22.392Z,8.39
2023-04-10T00:14:22.393Z,8.38
2023-04-10T00:15:23.321Z,8.37
2023-04-10T00:16:24.336Z,8.35
2023-04-10T00:17:23.063Z,8.34
2023-04-10T00:18:22.352Z,8.33
2023-04-10T00:19:23.032Z,8.32
2023-04-10T00:20:23.295Z,8.32
2023-04-10T00:21:23.000Z,8.33
2023-04-10T00:22:22.326Z,8.32
2023-04-10T00:23:22.983Z,8.31
2023-04-10T00:24:22.296Z,8.31
2023-04-10T00:25:22.266Z,8.30
2023-04-10T00:26:22.269Z,8.29
2023-04-10T00:27:22.267Z,8.28
2023-04-10T00:28:23.205Z,8.26
2023-04-10T00:29:23.165Z,8.25
2023-04-10T00:30:23.159Z,8.24
2023-04-10T00:31:22.991Z,8.23
2023-04-10T00:32:23.252Z,8.22
2023-04-10T00:33:22.871Z,8.21
2023-04-10T00:34:22.869Z,8.21
2023-04-10T00:35:23.112Z,8.20
2023-04-10T00:36:23.087Z,8.18
2023-04-10T00:37:22.822Z,8.17
2023-04-10T00:38:22.825Z,8.14
2023-04-10T00:39:22.810Z,8.12
2023-04-10T00:40:22.802Z,8.12
2023-04-10T00:41:22.790Z,8.12
2023-04-10T00:42:22.763Z,8.11
2023-04-10T00:43:22.081Z,8.12
2023-04-10T00:44:22.065Z,8.11
2023-04-10T00:45:22.741Z,8.12
2023-04-10T00:46:22.762Z,8.12
2023-04-10T00:47:22.747Z,8.12
2023-04-10T00:48:22.739Z,8.12
2023-04-10T00:49:22.041Z,8.13
2023-04-10T00:50:22.003Z,8.12
2023-04-10T00:51:22.709Z,8.13
2023-04-10T00:52:22.658Z,8.14
2023-04-10T00:53:22.690Z,8.14
2023-04-10T00:54:22.684Z,8.15
2023-04-10T00:55:21.973Z,8.15
2023-04-10T00:56:21.947Z,8.16
2023-04-10T00:57:21.969Z,8.18
2023-04-10T00:58:22.598Z,8.18
2023-04-10T00:59:22.600Z,8.20
2023-04-10T01:00:21.909Z,8.21
2023-04-10T01:01:21.882Z,8.22
2023-04-10T01:02:21.986Z,8.23
2023-04-10T01:03:22.895Z,8.24
2023-04-10T01:04:22.721Z,8.24
2023-04-10T01:05:22.524Z,8.25
2023-04-10T01:06:21.880Z,8.25
2023-04-10T01:07:22.504Z,8.26
2023-04-10T01:08:22.496Z,8.28
2023-04-10T01:09:22.492Z,8.27
2023-04-10T01:10:22.477Z,8.27
2023-04-10T01:11:22.490Z,8.28
2023-04-10T01:12:21.762Z,8.28
2023-04-10T01:13:22.442Z,8.29
2023-04-10T01:14:22.432Z,8.27
2023-04-10T01:15:22.416Z,8.29
2023-04-10T01:16:22.434Z,8.29
2023-04-10T01:17:21.814Z,8.29
2023-04-10T01:18:21.695Z,8.30
2023-04-10T01:19:22.373Z,8.29
2023-04-10T01:20:22.390Z,8.30
2023-04-10T01:21:22.341Z,8.30
2023-04-10T01:22:21.633Z,8.30
2023-04-10T01:23:21.643Z,8.31
2023-04-10T01:24:21.648Z,8.32
2023-04-10T01:25:21.624Z,8.32
2023-04-10T01:26:22.290Z,8.33
2023-04-10T01:27:22.283Z,8.33
2023-04-10T01:28:22.296Z,8.34
2023-04-10T01:29:21.574Z,8.34
2023-04-10T01:30:22.253Z,8.35
2023-04-10T01:31:21.805Z,8.35
2023-04-10T01:32:21.579Z,8.35
2023-04-10T01:33:22.222Z,8.35
2023-04-10T01:34:22.291Z,8.36
2023-04-10T01:35:21.536Z,8.37
2023-04-10T01:36:21.520Z,8.37
2023-04-10T01:37:22.180Z,8.37
2023-04-10T01:38:22.170Z,8.36
2023-04-10T01:39:22.152Z,8.36
2023-04-10T01:40:21.476Z,8.37
2023-04-10T01:41:22.116Z,8.37
2023-04-10T01:42:22.140Z,8.37
2023-04-10T01:43:21.423Z,8.37
2023-04-10T01:44:22.103Z,8.37
2023-04-10T01:45:23.333Z,8.37
2023-04-10T01:46:22.096Z,8.36
2023-04-10T01:47:22.361Z,8.37
2023-04-10T01:48:21.358Z,8.37
2023-04-10T01:49:22.055Z,8.37
2023-04-10T01:50:22.034Z,8.38
2023-04-10T01:51:22.011Z,8.38
2023-04-10T01:52:21.328Z,8.38
2023-04-10T01:53:21.332Z,8.38
2023-04-10T01:54:21.315Z,8.38
2023-04-10T01:55:21.307Z,8.37
2023-04-10T01:56:21.987Z,8.38
2023-04-10T01:57:21.975Z,8.36
2023-04-10T01:58:21.259Z,8.37
2023-04-10T01:59:21.253Z,8.36
2023-04-10T02:00:21.292Z,8.35
2023-04-10T02:01:29.886Z,8.35
2023-04-10T02:02:22.258Z,8.35
2023-04-10T02:03:21.296Z,8.34
2023-04-10T02:04:22.007Z,8.34
2023-04-10T02:05:23.138Z,8.33
2023-04-10T02:06:21.862Z,8.33
2023-04-10T02:07:21.854Z,8.33
2023-04-10T02:08:21.846Z,8.32
2023-04-10T02:09:21.158Z,8.32
2023-04-10T02:10:21.138Z,8.31
2023-04-10T02:11:21.146Z,8.32
2023-04-10T02:12:21.815Z,8.32
2023-04-10T02:13:21.791Z,8.31
2023-04-10T02:14:21.782Z,8.31
2023-04-10T02:15:21.767Z,8.32
2023-04-10T02:16:21.761Z,8.32
2023-04-10T02:17:21.782Z,8.32
2023-04-10T02:18:21.057Z,8.32
2023-04-10T02:19:21.728Z,8.33
2023-04-10T02:20:21.723Z,8.32
2023-04-10T02:21:21.041Z,8.32
2023-04-10T02:22:21.690Z,8.32
2023-04-10T02:23:21.684Z,8.31
2023-04-10T02:24:21.690Z,8.31
2023-04-10T02:25:20.990Z,8.30
2023-04-10T02:26:21.652Z,8.30
2023-04-10T02:27:21.640Z,8.29
2023-04-10T02:28:20.950Z,8.27
2023-04-10T02:29:21.631Z,8.26
2023-04-10T02:30:21.608Z,8.26
2023-04-10T02:31:21.632Z,8.24
2023-04-10T02:32:21.652Z,8.23
2023-04-10T02:33:21.580Z,8.22
2023-04-10T02:34:21.566Z,8.20
2023-04-10T02:35:20.872Z,8.19
2023-04-10T02:36:21.571Z,8.18
2023-04-10T02:37:21.520Z,8.15
2023-04-10T02:38:21.524Z,8.14
2023-04-10T02:39:21.511Z,8.13
2023-04-10T02:40:21.502Z,8.13
2023-04-10T02:41:20.830Z,8.12
2023-04-10T02:42:21.705Z,8.11
2023-04-10T02:43:20.768Z,8.10
2023-04-10T02:44:21.469Z,8.09
2023-04-10T02:45:20.779Z,8.09
2023-04-10T02:46:20.773Z,8.06
2023-04-10T02:47:20.794Z,8.05
2023-04-10T02:48:21.419Z,8.05
2023-04-10T02:49:20.724Z,8.04
2023-04-10T02:50:20.721Z,8.03
2023-04-10T02:51:21.384Z,8.03
2023-04-10T02:52:20.705Z,8.02
2023-04-10T02:53:20.689Z,8.02
2023-04-10T02:54:21.352Z,8.01
2023-04-10T02:55:20.648Z,8.02
2023-04-10T02:56:20.643Z,8.02
2023-04-10T02:57:20.653Z,8.02
2023-04-10T02:58:21.313Z,8.03
2023-04-10T02:59:20.623Z,8.03
2023-04-10T03:00:21.292Z,8.03
2023-04-10T03:01:20.647Z,8.02
2023-04-10T03:02:20.755Z,8.03
2023-04-10T03:03:20.740Z,8.02
2023-04-10T03:04:20.697Z,8.02
2023-04-10T03:05:20.545Z,8.02
2023-04-10T03:06:21.203Z,8.02
2023-04-10T03:07:21.209Z,8.01
2023-04-10T03:08:21.205Z,8.01
2023-04-10T03:09:20.508Z,8.02
2023-04-10T03:10:21.196Z,8.02
2023-04-10T03:11:20.524Z,8.02
2023-04-10T03:12:21.162Z,8.01
2023-04-10T03:13:21.142Z,8.01
2023-04-10T03:14:20.455Z,8.00
2023-04-10T03:15:21.137Z,8.00
2023-04-10T03:16:21.205Z,7.98
2023-04-10T03:17:21.388Z,7.97
2023-04-10T03:18:20.407Z,7.96
2023-04-10T03:19:21.080Z,7.96
2023-04-10T03:20:21.077Z,7.95
2023-04-10T03:21:20.405Z,7.94
2023-04-10T03:22:21.057Z,7.93
2023-04-10T03:23:21.042Z,7.92
2023-04-10T03:24:21.026Z,7.92
2023-04-10T03:25:20.326Z,7.91
2023-04-10T03:26:21.009Z,7.90
2023-04-10T03:27:20.993Z,7.89
2023-04-10T03:28:20.985Z,7.89
2023-04-10T03:29:20.975Z,7.89
2023-04-10T03:30:20.964Z,7.88
2023-04-10T03:31:20.977Z,7.88
2023-04-10T03:32:20.967Z,7.89
2023-04-10T03:33:21.218Z,7.88
2023-04-10T03:34:20.921Z,7.88
2023-04-10T03:35:21.170Z,7.88
2023-04-10T03:36:21.189Z,7.88
2023-04-10T03:37:20.886Z,7.88
2023-04-10T03:38:21.138Z,7.88
2023-04-10T03:39:20.859Z,7.88
2023-04-10T03:40:20.160Z,7.89
2023-04-10T03:41:20.173Z,7.89
2023-04-10T03:42:20.152Z,7.88
2023-04-10T03:43:20.822Z,7.88
2023-04-10T03:44:20.132Z,7.88
2023-04-10T03:45:20.116Z,7.89
2023-04-10T03:46:20.824Z,7.89
2023-04-10T03:47:20.797Z,7.89
2023-04-10T03:48:20.085Z,7.89
2023-04-10T03:49:20.773Z,7.89
2023-04-10T03:50:20.750Z,7.90
2023-04-10T03:51:20.080Z,7.90
2023-04-10T03:52:20.733Z,7.90
2023-04-10T03:53:20.708Z,7.89
2023-04-10T03:54:20.015Z,7.90
2023-04-10T03:55:20.022Z,7.89
2023-04-10T03:56:20.862Z,7.89
2023-04-10T03:57:20.081Z,7.88
2023-04-10T03:58:20.882Z,7.88
2023-04-10T03:59:22.809Z,7.88
2023-04-10T04:00:20.986Z,7.88
2023-04-10T04:01:20.093Z,7.87
2023-04-10T04:02:20.755Z,7.87
2023-04-10T04:03:20.760Z,7.87
2023-04-10T04:04:19.954Z,7.86
2023-04-10T04:05:20.583Z,7.85
2023-04-10T04:06:19.900Z,7.84
2023-04-10T04:07:19.903Z,7.83
2023-04-10T04:08:20.555Z,7.82
2023-04-10T04:09:19.985Z,7.81
2023-04-10T04:10:20.795Z,7.80
2023-04-10T04:11:20.516Z,7.80
2023-04-10T04:12:20.488Z,7.79
2023-04-10T04:13:20.498Z,7.77
2023-04-10T04:14:20.767Z,7.77
2023-04-10T04:15:20.472Z,7.75
2023-04-10T04:16:20.500Z,7.75
2023-04-10T04:17:20.444Z,7.74
2023-04-10T04:18:20.436Z,7.73
2023-04-10T04:19:20.505Z,7.72
2023-04-10T04:20:19.737Z,7.71
2023-04-10T04:21:19.729Z,7.71
2023-04-10T04:22:20.376Z,7.70
2023-04-10T04:23:19.697Z,7.69
2023-04-10T04:24:19.739Z,7.69
2023-04-10T04:25:20.013Z,7.68
2023-04-10T04:26:20.756Z,7.67
2023-04-10T04:27:19.682Z,7.67
2023-04-10T04:28:21.675Z,7.65
2023-04-10T04:29:20.470Z,7.64
2023-04-10T04:30:19.748Z,7.64
2023-04-10T04:31:19.793Z,7.60
2023-04-10T04:32:20.484Z,7.59
2023-04-10T04:33:19.657Z,7.57
2023-04-10T04:34:20.270Z,7.56
2023-04-10T04:35:19.647Z,7.54
2023-04-10T04:36:19.895Z,7.52
2023-04-10T04:37:20.372Z,7.51
2023-04-10T04:38:20.327Z,7.49
2023-04-10T04:39:19.774Z,7.48
2023-04-10T04:40:20.221Z,7.46
2023-04-10T04:41:20.705Z,7.45
2023-04-10T04:42:20.602Z,7.45
2023-04-10T04:43:20.256Z,7.43
2023-04-10T04:44:19.529Z,7.42
2023-04-10T04:45:20.176Z,7.41
2023-04-10T04:46:19.845Z,7.40
2023-04-10T04:47:20.168Z,7.38
2023-04-10T04:48:19.885Z,7.36
2023-04-10T04:49:20.558Z,7.35
2023-04-10T04:50:20.129Z,7.35
2023-04-10T04:51:19.545Z,7.34
2023-04-10T04:52:19.420Z,7.33
2023-04-10T04:53:19.515Z,7.34
2023-04-10T04:54:19.438Z,7.33
2023-04-10T04:55:19.690Z,7.32
2023-04-10T04:56:20.033Z,7.32
2023-04-10T04:57:20.077Z,7.32
2023-04-10T04:58:20.031Z,7.32
2023-04-10T04:59:19.455Z,7.35
2023-04-10T05:00:19.522Z,7.34
2023-04-10T05:01:19.439Z,7.34
2023-04-10T05:02:19.711Z,7.36
2023-04-10T05:03:20.173Z,7.37
2023-04-10T05:04:19.403Z,7.39
2023-04-10T05:05:19.351Z,7.41
2023-04-10T05:06:19.277Z,7.43
2023-04-10T05:07:19.234Z,7.46
2023-04-10T05:08:19.912Z,7.49
2023-04-10T05:09:19.231Z,7.53
2023-04-10T05:10:19.889Z,7.57
2023-04-10T05:11:19.224Z,7.62
2023-04-10T05:12:19.865Z,7.67
2023-04-10T05:13:19.866Z,7.73
2023-04-10T05:14:19.848Z,7.79
2023-04-10T05:15:19.155Z,7.85
2023-04-10T05:16:19.835Z,7.89
2023-04-10T05:17:19.165Z,7.93
2023-04-10T05:18:19.366Z,7.98
2023-04-10T05:19:19.098Z,8.02
2023-04-10T05:20:19.787Z,8.06
2023-04-10T05:21:19.120Z,8.09
2023-04-10T05:22:19.782Z,8.13
2023-04-10T05:23:19.748Z,8.17
2023-04-10T05:24:19.751Z,8.23
2023-04-10T05:25:19.732Z,8.30
2023-04-10T05:26:19.700Z,8.35
2023-04-10T05:27:19.711Z,8.42
2023-04-10T05:28:19.699Z,8.50
2023-04-10T05:29:19.683Z,8.62
2023-04-10T05:30:19.011Z,8.74
2023-04-10T05:31:19.040Z,8.85
2023-04-10T05:32:19.726Z,8.95
2023-04-10T05:33:18.968Z,9.09
2023-04-10T05:34:18.950Z,9.27
2023-04-10T05:35:18.964Z,9.50
2023-04-10T05:36:18.993Z,9.70
2023-04-10T05:37:18.931Z,9.85
2023-04-10T05:38:19.601Z,9.95
2023-04-10T05:39:18.918Z,10.04
2023-04-10T05:40:18.959Z,10.14
2023-04-10T05:41:19.572Z,10.19
2023-04-10T05:42:20.729Z,10.18
2023-04-10T05:43:18.878Z,10.17
2023-04-10T05:44:18.868Z,10.17
2023-04-10T05:45:18.866Z,10.18
2023-04-10T05:46:18.852Z,10.21
2023-04-10T05:47:18.889Z,10.23
2023-04-10T05:48:18.815Z,10.22
2023-04-10T05:49:19.481Z,10.20
2023-04-10T05:50:18.813Z,10.17
2023-04-10T05:51:19.454Z,10.15
2023-04-10T05:52:18.772Z,10.14
2023-04-10T05:53:18.753Z,10.11
2023-04-10T05:54:19.423Z,10.10
2023-04-10T05:55:18.747Z,10.10
2023-04-10T05:56:19.402Z,10.10
2023-04-10T05:57:19.392Z,10.11
2023-04-10T05:58:19.384Z,10.14
2023-04-10T05:59:18.707Z,10.16
2023-04-10T06:00:18.695Z,10.20
2023-04-10T06:01:18.665Z,10.25
2023-04-10T06:02:18.858Z,10.28
2023-04-10T06:03:18.720Z,10.30
2023-04-10T06:04:19.499Z,10.31
2023-04-10T06:05:19.365Z,10.34
2023-04-10T06:06:19.303Z,10.38
2023-04-10T06:07:18.654Z,10.43
2023-04-10T06:08:19.273Z,10.49
2023-04-10T06:09:18.584Z,10.61
2023-04-10T06:10:19.238Z,10.71
2023-04-10T06:11:18.567Z,10.81
2023-04-10T06:12:18.544Z,11.00
2023-04-10T06:13:19.224Z,11.28
2023-04-10T06:14:18.535Z,11.56
2023-04-10T06:15:18.551Z,11.83
2023-04-10T06:16:18.558Z,12.08
2023-04-10T06:17:18.533Z,12.31
2023-04-10T06:18:18.495Z,12.49
2023-04-10T06:19:18.474Z,12.67
2023-04-10T06:20:19.128Z,12.87
2023-04-10T06:21:18.457Z,13.05
2023-04-10T06:22:19.129Z,13.29
2023-04-10T06:23:19.119Z,13.67
2023-04-10T06:24:19.121Z,14.08
2023-04-10T06:25:19.073Z,14.50
2023-04-10T06:26:19.081Z,14.73
2023-04-10T06:27:19.068Z,14.95
2023-04-10T06:28:18.412Z,15.27
2023-04-10T06:29:19.057Z,15.48
2023-04-10T06:30:19.026Z,15.61
2023-04-10T06:31:19.079Z,15.89
2023-04-10T06:32:18.335Z,16.25
2023-04-10T06:33:18.336Z,16.68
2023-04-10T06:34:18.309Z,17.16
2023-04-10T06:35:18.976Z,17.63
2023-04-10T06:36:18.978Z,17.89
2023-04-10T06:37:18.966Z,18.37
2023-04-10T06:38:18.297Z,18.82
2023-04-10T06:39:18.261Z,19.24
2023-04-10T06:40:18.310Z,19.61
2023-04-10T06:41:18.229Z,19.98
2023-04-10T06:42:18.912Z,20.36
2023-04-10T06:43:18.902Z,20.76
2023-04-10T06:44:18.210Z,21.17
2023-04-10T06:45:18.880Z,21.54
2023-04-10T06:46:18.221Z,21.81
2023-04-10T06:47:18.897Z,22.04
2023-04-10T06:48:18.858Z,22.29
2023-04-10T06:49:18.156Z,22.50
2023-04-10T06:50:18.165Z,22.63
2023-04-10T06:51:18.150Z,22.76
2023-04-10T06:52:18.135Z,22.81
2023-04-10T06:53:18.134Z,22.92
2023-04-10T06:54:19.139Z,23.09
2023-04-10T06:55:18.116Z,23.33
2023-04-10T06:56:18.771Z,23.57
2023-04-10T06:57:18.759Z,23.83
2023-04-10T06:58:18.074Z,24.11
2023-04-10T06:59:18.728Z,24.37
2023-04-10T07:00:18.048Z,24.64
2023-04-10T07:01:18.758Z,24.90
2023-04-10T07:02:18.055Z,25.10
2023-04-10T07:03:18.110Z,25.22
2023-04-10T07:04:18.020Z,25.34
2023-04-10T07:05:18.003Z,25.47
2023-04-10T07:06:18.659Z,25.48
2023-04-10T07:07:18.639Z,25.51
2023-04-10T07:08:18.627Z,25.45
2023-04-10T07:09:18.621Z,25.37
2023-04-10T07:10:17.950Z,25.29
2023-04-10T07:11:18.602Z,25.31
2023-04-10T07:12:18.591Z,25.36
2023-04-10T07:13:17.905Z,25.57
2023-04-10T07:14:18.564Z,25.77
2023-04-10T07:15:17.890Z,26.05
2023-04-10T07:16:17.922Z,26.36
2023-04-10T07:17:17.884Z,26.62
2023-04-10T07:18:17.845Z,26.89
2023-04-10T07:19:17.846Z,27.21
2023-04-10T07:20:17.984Z,27.51
2023-04-10T07:21:18.501Z,27.67
2023-04-10T07:22:17.804Z,27.87
2023-04-10T07:23:18.474Z,28.04
2023-04-10T07:24:17.791Z,28.11
2023-04-10T07:25:17.788Z,28.13
2023-04-10T07:26:18.220Z,28.06
2023-04-10T07:27:17.767Z,27.99
2023-04-10T07:28:17.785Z,27.77
2023-04-10T07:29:17.798Z,27.39
2023-04-10T07:30:17.821Z,27.02
2023-04-10T07:31:17.899Z,26.69
2023-04-10T07:32:18.519Z,26.39
2023-04-10T07:33:18.188Z,26.12
2023-04-10T07:34:17.884Z,25.91
2023-04-10T07:35:17.852Z,25.74
2023-04-10T07:36:17.870Z,25.62
2023-04-10T07:37:18.234Z,25.48
2023-04-10T07:38:17.659Z,25.29
2023-04-10T07:39:18.298Z,25.09
2023-04-10T07:40:17.725Z,24.77
2023-04-10T07:41:17.727Z,24.42
2023-04-10T07:42:17.588Z,24.08
2023-04-10T07:43:18.305Z,23.76
2023-04-10T07:44:17.592Z,23.44
2023-04-10T07:45:18.268Z,23.03
2023-04-10T07:46:18.501Z,22.57
2023-04-10T07:47:18.574Z,22.17
2023-04-10T07:48:17.550Z,21.95
2023-04-10T07:49:17.526Z,21.89
2023-04-10T07:50:18.184Z,21.87
2023-04-10T07:51:17.503Z,21.69
2023-04-10T07:52:18.158Z,21.55
2023-04-10T07:53:18.153Z,21.54
2023-04-10T07:54:18.140Z,21.68
2023-04-10T07:55:18.117Z,21.99
2023-04-10T07:56:17.526Z,22.37
2023-04-10T07:57:17.530Z,22.85
2023-04-10T07:58:17.480Z,23.50
2023-04-10T07:59:17.452Z,24.08
2023-04-10T08:00:17.722Z,24.05
2023-04-10T08:01:18.293Z,23.87
2023-04-10T08:02:18.311Z,23.84
2023-04-10T08:03:18.320Z,23.63
2023-04-10T08:04:17.673Z,23.43
2023-04-10T08:05:17.742Z,23.34
2023-04-10T08:06:18.010Z,23.16
2023-04-10T08:07:17.625Z,23.17
2023-04-10T08:08:17.662Z,23.08
2023-04-10T08:09:17.972Z,23.36
2023-04-10T08:10:17.909Z,24.08
2023-04-10T08:11:17.648Z,24.54
2023-04-10T08:12:17.690Z,24.60
2023-04-10T08:13:17.929Z,24.53
2023-04-10T08:14:18.460Z,24.36
2023-04-10T08:15:17.251Z,24.01
2023-04-10T08:16:17.409Z,23.82
2023-04-10T08:17:17.884Z,23.79
2023-04-10T08:18:17.334Z,23.65
2023-04-10T08:19:21.061Z,23.64
2023-04-10T08:20:17.841Z,23.94
2023-04-10T08:21:18.050Z,24.53
2023-04-10T08:22:17.153Z,25.39
2023-04-10T08:23:20.914Z,26.22
2023-04-10T08:24:17.976Z,27.13
2023-04-10T08:25:17.815Z,27.52
2023-04-10T08:26:17.785Z,27.37
2023-04-10T08:27:17.826Z,26.90
2023-04-10T08:28:17.871Z,26.19
2023-04-10T08:29:17.265Z,25.78
2023-04-10T08:30:17.070Z,25.90
2023-04-10T08:31:17.176Z,26.35
2023-04-10T08:32:17.061Z,26.79
2023-04-10T08:33:17.045Z,27.27
2023-04-10T08:34:17.018Z,27.83
2023-04-10T08:35:17.673Z,28.33
2023-04-10T08:36:20.077Z,28.61
2023-04-10T08:37:17.670Z,28.70
2023-04-10T08:38:17.000Z,28.77
2023-04-10T08:39:16.958Z,28.57
2023-04-10T08:40:17.621Z,28.47
2023-04-10T08:41:16.942Z,28.51
2023-04-10T08:42:17.614Z,28.54
2023-04-10T08:43:16.920Z,28.68
2023-04-10T08:44:17.611Z,28.92
2023-04-10T08:45:17.816Z,29.21
2023-04-10T08:46:16.947Z,29.59
2023-04-10T08:47:17.580Z,29.98
2023-04-10T08:48:16.867Z,30.30
2023-04-10T08:49:17.544Z,30.55
2023-04-10T08:50:17.510Z,30.77
2023-04-10T08:51:20.046Z,30.96
2023-04-10T08:52:16.856Z,31.09
2023-04-10T08:53:17.496Z,31.20
2023-04-10T08:54:17.521Z,31.26
2023-04-10T08:55:16.828Z,31.26
2023-04-10T08:56:17.819Z,31.20
2023-04-10T08:57:16.883Z,31.16
2023-04-10T08:58:17.325Z,31.09
2023-04-10T08:59:16.860Z,30.77
2023-04-10T09:00:23.348Z,30.50
2023-04-10T09:01:18.779Z,30.43
2023-04-10T09:02:17.557Z,30.31
2023-04-10T09:03:17.080Z,30.17
2023-04-10T09:04:16.827Z,30.03
2023-04-10T09:05:16.689Z,29.90
2023-04-10T09:06:16.677Z,29.77
2023-04-10T09:07:17.351Z,29.62
2023-04-10T09:08:17.332Z,29.45
2023-04-10T09:09:17.328Z,29.24
2023-04-10T09:10:16.663Z,29.01
2023-04-10T09:11:17.310Z,28.82
2023-04-10T09:12:17.297Z,28.60
2023-04-10T09:13:17.281Z,28.46
2023-04-10T09:14:16.585Z,28.34
2023-04-10T09:15:17.262Z,28.22
2023-04-10T09:16:16.615Z,28.09
2023-04-10T09:17:17.254Z,27.90
2023-04-10T09:18:17.229Z,27.69
2023-04-10T09:19:17.215Z,27.49
2023-04-10T09:20:17.188Z,27.29
2023-04-10T09:21:16.529Z,27.09
2023-04-10T09:22:17.182Z,26.92
2023-04-10T09:23:17.166Z,26.76
2023-04-10T09:24:16.558Z,26.59
2023-04-10T09:25:16.912Z,26.50
2023-04-10T09:26:16.918Z,26.43
2023-04-10T09:27:16.622Z,26.36
2023-04-10T09:28:16.422Z,26.29
2023-04-10T09:29:16.418Z,26.16
2023-04-10T09:30:16.427Z,26.06
2023-04-10T09:31:17.136Z,25.94
2023-04-10T09:32:17.072Z,25.82
2023-04-10T09:33:17.066Z,25.74
2023-04-10T09:34:16.390Z,25.65
2023-04-10T09:35:17.024Z,25.58
2023-04-10T09:36:17.049Z,25.47
2023-04-10T09:37:16.353Z,25.42
2023-04-10T09:38:18.279Z,25.37
2023-04-10T09:39:16.996Z,25.30
2023-04-10T09:40:16.974Z,25.23
2023-04-10T09:41:16.976Z,25.15
2023-04-10T09:42:16.963Z,25.08
2023-04-10T09:43:18.238Z,24.95
2023-04-10T09:44:16.253Z,24.80
2023-04-10T09:45:16.916Z,24.66
2023-04-10T09:46:16.968Z,24.50
2023-04-10T09:47:16.918Z,24.37
2023-04-10T09:48:16.929Z,24.28
2023-04-10T09:49:16.888Z,24.20
2023-04-10T09:50:16.218Z,24.13
2023-04-10T09:51:16.192Z,24.08
2023-04-10T09:52:16.864Z,24.04
2023-04-10T09:53:16.854Z,24.02
2023-04-10T09:54:17.109Z,24.05
2023-04-10T09:55:16.829Z,24.07
2023-04-10T09:56:16.818Z,24.09
2023-04-10T09:57:16.173Z,24.11
2023-04-10T09:58:16.798Z,24.11
2023-04-10T09:59:16.787Z,24.09
2023-04-10T10:00:17.085Z,24.12
2023-04-10T10:01:17.022Z,24.17
2023-04-10T10:02:16.851Z,24.21
2023-04-10T10:03:17.144Z,24.23
2023-04-10T10:04:16.756Z,24.19
2023-04-10T10:05:17.000Z,24.11
2023-04-10T10:06:17.005Z,24.04
2023-04-10T10:07:16.961Z,23.96
2023-04-10T10:08:16.692Z,23.87
2023-04-10T10:09:16.944Z,23.78
2023-04-10T10:10:16.662Z,23.70
2023-04-10T10:11:16.654Z,23.67
2023-04-10T10:12:16.641Z,23.69
2023-04-10T10:13:16.628Z,23.72
2023-04-10T10:14:16.877Z,23.77
2023-04-10T10:15:16.886Z,23.80
2023-04-10T10:16:16.638Z,23.84
2023-04-10T10:17:15.912Z,23.89
2023-04-10T10:18:16.589Z,23.93
2023-04-10T10:19:16.848Z,23.98
2023-04-10T10:20:15.901Z,24.05
2023-04-10T10:21:16.820Z,24.15
2023-04-10T10:22:16.801Z,24.26
2023-04-10T10:23:15.910Z,24.35
2023-04-10T10:24:16.520Z,24.41
2023-04-10T10:25:15.855Z,24.42
2023-04-10T10:26:15.829Z,24.44
2023-04-10T10:27:16.505Z,24.43
2023-04-10T10:28:16.743Z,24.40
2023-04-10T10:29:16.471Z,24.33
2023-04-10T10:30:28.932Z,24.23
2023-04-10T10:31:17.453Z,24.10
2023-04-10T10:32:16.687Z,24.00
2023-04-10T10:33:16.428Z,23.91
2023-04-10T10:34:16.424Z,23.85
2023-04-10T10:35:15.733Z,23.81
2023-04-10T10:36:16.682Z,23.80
2023-04-10T10:37:16.379Z,23.78
2023-04-10T10:38:16.369Z,23.76
2023-04-10T10:39:16.358Z,23.76
2023-04-10T10:40:16.651Z,23.78
2023-04-10T10:41:16.615Z,23.81
2023-04-10T10:42:17.610Z,23.82
2023-04-10T10:43:16.317Z,23.84
2023-04-10T10:44:16.583Z,23.87
2023-04-10T10:45:16.568Z,23.91
2023-04-10T10:46:16.703Z,23.89
2023-04-10T10:47:16.276Z,23.89
2023-04-10T10:48:16.545Z,23.91
2023-04-10T10:49:16.517Z,23.93
2023-04-10T10:50:16.246Z,23.93
2023-04-10T10:51:16.497Z,23.94
2023-04-10T10:52:17.494Z,23.91
2023-04-10T10:53:16.209Z,23.84
2023-04-10T10:54:16.477Z,23.77
2023-04-10T10:55:16.480Z,23.69
2023-04-10T10:56:16.192Z,23.64
2023-04-10T10:57:16.438Z,23.60
2023-04-10T10:58:16.189Z,23.57
2023-04-10T10:59:16.422Z,23.52
2023-04-10T11:00:16.190Z,23.48
2023-04-10T11:01:16.291Z,23.46
2023-04-10T11:02:16.304Z,23.44
2023-04-10T11:03:16.556Z,23.42
2023-04-10T11:04:16.186Z,23.41
2023-04-10T11:05:16.371Z,23.43
2023-04-10T11:06:16.076Z,23.43
2023-04-10T11:07:15.393Z,23.44
2023-04-10T11:08:15.406Z,23.46
2023-04-10T11:09:16.040Z,23.48
2023-04-10T11:10:16.317Z,23.50
2023-04-10T11:11:16.434Z,23.51
2023-04-10T11:12:16.255Z,23.54
2023-04-10T11:13:16.084Z,23.56
2023-04-10T11:14:16.253Z,23.57
2023-04-10T11:15:15.957Z,23.58
2023-04-10T11:16:15.989Z,23.61
2023-04-10T11:17:15.990Z,23.62
2023-04-10T11:18:15.945Z,23.64
2023-04-10T11:19:17.263Z,23.63
2023-04-10T11:20:15.383Z,23.62
2023-04-10T11:21:15.235Z,23.60
2023-04-10T11:22:15.921Z,23.60
2023-04-10T11:23:15.890Z,23.62
2023-04-10T11:24:15.210Z,23.63
2023-04-10T11:25:15.847Z,23.62
2023-04-10T11:26:15.860Z,23.62
2023-04-10T11:27:15.845Z,23.61
2023-04-10T11:28:15.181Z,23.60
2023-04-10T11:29:15.139Z,23.60
2023-04-10T11:30:15.155Z,23.61
2023-04-10T11:31:15.114Z,23.63
2023-04-10T11:32:15.228Z,23.64
2023-04-10T11:33:15.104Z,23.62
2023-04-10T11:34:15.091Z,23.58
2023-04-10T11:35:15.734Z,23.53
2023-04-10T11:36:15.059Z,23.51
2023-04-10T11:37:15.038Z,23.48
2023-04-10T11:38:15.725Z,23.46
2023-04-10T11:39:15.711Z,23.46
2023-04-10T11:40:15.043Z,23.47
2023-04-10T11:41:15.019Z,23.48
2023-04-10T11:42:14.999Z,23.49
2023-04-10T11:43:15.663Z,23.50
2023-04-10T11:44:14.988Z,23.48
2023-04-10T11:45:15.629Z,23.46
2023-04-10T11:46:15.034Z,23.44
2023-04-10T11:47:14.954Z,23.44
2023-04-10T11:48:14.934Z,23.45
2023-04-10T11:49:14.911Z,23.48
2023-04-10T11:50:14.923Z,23.51
2023-04-10T11:51:15.579Z,23.54
2023-04-10T11:52:14.938Z,23.56
2023-04-10T11:53:15.561Z,23.54
2023-04-10T11:54:14.874Z,23.56
2023-04-10T11:55:15.517Z,23.56
2023-04-10T11:56:14.854Z,23.58
2023-04-10T11:57:15.524Z,23.58
2023-04-10T11:58:14.832Z,23.59
2023-04-10T11:59:14.816Z,23.59
2023-04-10T12:00:14.860Z,23.60
2023-04-10T12:01:15.477Z,23.63
2023-04-10T12:02:15.609Z,23.67
2023-04-10T12:03:15.037Z,23.70
2023-04-10T12:04:14.873Z,23.74
2023-04-10T12:05:14.799Z,23.76
2023-04-10T12:06:15.418Z,23.77
2023-04-10T12:07:15.403Z,23.79
2023-04-10T12:08:14.730Z,23.78
2023-04-10T12:09:15.387Z,23.76
2023-04-10T12:10:15.352Z,23.74
2023-04-10T12:11:15.362Z,23.74
2023-04-10T12:12:14.663Z,23.75
2023-04-10T12:13:14.656Z,23.76
2023-04-10T12:14:14.642Z,23.76
2023-04-10T12:15:16.583Z,23.75
2023-04-10T12:16:15.416Z,23.73
2023-04-10T12:17:14.657Z,23.72
2023-04-10T12:18:14.608Z,23.70
2023-04-10T12:19:14.592Z,23.68
2023-04-10T12:20:15.245Z,23.66
2023-04-10T12:21:14.574Z,23.65
2023-04-10T12:22:14.548Z,23.63
2023-04-10T12:23:14.545Z,23.60
2023-04-10T12:24:15.217Z,23.55
2023-04-10T12:25:14.547Z,23.53
2023-04-10T12:26:15.200Z,23.51
2023-04-10T12:27:15.197Z,23.53
2023-04-10T12:28:14.514Z,23.54
2023-04-10T12:29:15.176Z,23.57
2023-04-10T12:30:14.497Z,23.60
2023-04-10T12:31:14.517Z,23.61
2023-04-10T12:32:14.453Z,23.62
2023-04-10T12:33:14.445Z,23.64
2023-04-10T12:34:15.114Z,23.64
2023-04-10T12:35:14.435Z,23.65
2023-04-10T12:36:14.428Z,23.65
2023-04-10T12:37:15.114Z,23.63
2023-04-10T12:38:15.075Z,23.62
2023-04-10T12:39:15.061Z,23.61
2023-04-10T12:40:15.036Z,23.62
2023-04-10T12:41:14.384Z,23.64
2023-04-10T12:42:15.026Z,23.67
2023-04-10T12:43:14.335Z,23.70
2023-04-10T12:44:14.334Z,23.72
2023-04-10T12:45:14.466Z,23.72
2023-04-10T12:46:15.011Z,23.72
2023-04-10T12:47:14.287Z,23.73
2023-04-10T12:48:14.969Z,23.72
2023-04-10T12:49:14.978Z,23.72
2023-04-10T12:50:14.269Z,23.73
2023-04-10T12:51:14.936Z,23.75
2023-04-10T12:52:14.254Z,23.76
2023-04-10T12:53:15.164Z,23.74
2023-04-10T12:54:15.153Z,23.71
2023-04-10T12:55:14.878Z,23.70
2023-04-10T12:56:14.884Z,23.69
2023-04-10T12:57:14.873Z,23.65
2023-04-10T12:58:14.197Z,23.59
2023-04-10T12:59:14.854Z,23.54
2023-04-10T13:00:14.841Z,23.50
2023-04-10T13:01:14.919Z,23.47
2023-04-10T13:02:14.201Z,23.46
2023-04-10T13:03:14.977Z,23.45